createdAt,value
2022-08-07T00:04:09.386Z,101332.19
2022-08-07T00:09:16.750Z,101330.84
2022-08-07T00:14:17.229Z,101322.06
2022-08-07T00:19:21.795Z,101321.13
2022-08-07T00:24:22.748Z,101322.84
2022-08-07T00:29:25.833Z,101319.03
2022-08-07T00:34:28.389Z,101306.69
2022-08-07T00:39:25.650Z,101303.03
2022-08-07T00:44:23.924Z,101306.25
2022-08-07T00:49:24.934Z,101314.53
2022-08-07T00:54:40.766Z,101322.66
2022-08-07T00:59:37.718Z,101309.53
2022-08-07T01:04:37.425Z,101303.09
2022-08-07T01:10:06.689Z,101298.88
2022-08-07T01:15:01.762Z,101302.00
2022-08-07T01:20:10.128Z,101296.13
2022-08-07T01:25:39.974Z,101303.06
2022-08-07T01:30:31.861Z,101292.38
2022-08-07T01:35:53.844Z,101293.00
2022-08-07T01:40:46.122Z,101288.66
2022-08-07T01:45:46.646Z,101288.13
2022-08-07T01:50:47.053Z,101287.19
2022-08-07T01:55:50.668Z,101294.38
2022-08-07T02:00:57.891Z,101287.66
2022-08-07T02:06:31.578Z,101282.97
2022-08-07T02:11:30.678Z,101274.00
2022-08-07T02:16:45.427Z,101264.50
2022-08-07T02:21:55.592Z,101271.50
2022-08-07T02:26:54.120Z,101272.53
2022-08-07T02:31:51.970Z,101276.03
2022-08-07T02:36:52.179Z,101266.75
2022-08-07T02:41:54.425Z,101266.19
2022-08-07T02:46:54.462Z,101268.09
2022-08-07T02:51:52.467Z,101269.44
2022-08-07T02:56:51.420Z,101265.19
2022-08-07T03:01:52.209Z,101268.75
2022-08-07T03:06:53.035Z,101265.44
2022-08-07T03:11:58.045Z,101262.13
2022-08-07T03:16:59.558Z,101267.09
2022-08-07T03:21:56.738Z,101260.91
2022-08-07T03:26:58.878Z,101261.88
2022-08-07T03:31:56.508Z,101265.91
2022-08-07T03:36:54.855Z,101268.44
2022-08-07T03:41:54.181Z,101259.31
2022-08-07T03:47:11.057Z,101266.75
2022-08-07T03:52:17.664Z,101268.63
2022-08-07T03:58:35.152Z,101259.91
2022-08-07T04:02:36.893Z,101263.72
2022-08-07T04:07:45.283Z,101264.19
2022-08-07T04:12:42.176Z,101274.53
2022-08-07T04:18:31.940Z,101264.75
2022-08-07T04:23:01.813Z,101276.03
2022-08-07T04:28:02.782Z,101277.56
2022-08-07T04:33:01.110Z,101272.44
2022-08-07T04:38:08.000Z,101273.88
2022-08-07T04:43:04.516Z,101276.63
2022-08-07T04:48:12.928Z,101283.06
2022-08-07T04:54:01.138Z,101283.38
2022-08-07T04:59:17.198Z,101293.31
2022-08-07T05:05:00.657Z,101296.53
2022-08-07T05:10:11.726Z,101296.00
2022-08-07T05:15:23.508Z,101305.72
2022-08-07T05:20:26.973Z,101308.78
2022-08-07T05:26:10.823Z,101301.03
2022-08-07T05:30:42.562Z,101308.22
2022-08-07T05:35:42.133Z,101311.44
2022-08-07T05:40:50.276Z,101301.72
2022-08-07T05:45:48.469Z,101299.00
2022-08-07T05:50:45.789Z,101299.75
2022-08-07T05:56:01.881Z,101297.44
2022-08-07T06:01:00.915Z,101310.63
2022-08-07T06:06:02.789Z,101309.88
2022-08-07T06:10:59.823Z,101315.25
2022-08-07T06:16:03.159Z,101332.72
2022-08-07T06:22:14.499Z,101333.59
2022-08-07T06:26:17.844Z,101337.03
2022-08-07T06:31:14.253Z,101338.47
2022-08-07T06:36:13.687Z,101342.53
2022-08-07T06:42:00.640Z,101345.34
2022-08-07T06:46:38.047Z,101337.78
2022-08-07T06:51:49.713Z,101341.78
2022-08-07T06:56:49.833Z,101348.94
2022-08-07T07:01:51.157Z,101345.56
2022-08-07T07:07:00.374Z,101348.81
2022-08-07T07:12:16.795Z,101346.66
2022-08-07T07:17:33.164Z,101349.03
2022-08-07T07:24:05.220Z,101339.84
2022-08-07T07:28:42.447Z,101334.66
2022-08-07T07:33:43.131Z,101335.72
2022-08-07T07:38:47.504Z,101331.31
2022-08-07T07:44:17.961Z,101334.69
2022-08-07T07:49:08.916Z,101333.19
2022-08-07T07:54:25.929Z,101328.53
2022-08-07T07:59:27.172Z,101326.78
2022-08-07T08:04:44.601Z,101322.44
2022-08-07T08:09:52.066Z,101318.84
2022-08-07T08:15:06.682Z,101324.13
2022-08-07T08:20:17.116Z,101322.94
2022-08-07T08:25:42.308Z,101313.50
2022-08-07T08:30:50.948Z,101318.97
2022-08-07T08:35:50.879Z,101311.19
2022-08-07T08:41:23.030Z,101312.97
2022-08-07T08:46:34.158Z,101311.66
2022-08-07T08:52:12.746Z,101315.44
2022-08-07T08:57:20.384Z,101309.53
2022-08-07T09:02:39.086Z,101297.91
2022-08-07T09:07:57.768Z,101302.13
2022-08-07T09:13:14.826Z,101301.59
2022-08-07T09:18:52.902Z,101296.69
2022-08-07T09:24:33.254Z,101298.75
2022-08-07T09:30:05.815Z,101294.66
2022-08-07T09:36:02.927Z,101287.84
2022-08-07T09:41:01.935Z,101286.59
2022-08-07T09:47:50.342Z,101284.72
2022-08-07T09:52:10.470Z,101278.22
2022-08-07T09:57:30.135Z,101275.94
2022-08-07T10:02:57.886Z,101267.94
2022-08-07T10:08:36.619Z,101269.41
2022-08-07T10:14:00.898Z,101255.50
2022-08-07T10:19:30.018Z,101244.69
2022-08-07T10:24:50.919Z,101229.72
2022-08-07T10:29:58.514Z,101232.91
2022-08-07T10:35:09.095Z,101229.38
2022-08-07T10:40:33.311Z,101224.09
2022-08-07T10:45:44.627Z,101213.63
2022-08-07T10:51:03.920Z,101231.59
2022-08-07T10:56:09.605Z,101233.94
2022-08-07T11:02:04.800Z,101231.50
2022-08-07T11:08:00.466Z,101223.56
2022-08-07T11:13:07.094Z,101204.88
2022-08-07T11:18:36.949Z,101208.47
2022-08-07T11:23:51.452Z,101202.88
2022-08-07T11:29:42.795Z,101193.75
2022-08-07T11:34:54.066Z,101184.47
2022-08-07T11:40:07.731Z,101181.84
2022-08-07T11:45:35.992Z,101171.19
2022-08-07T11:50:58.400Z,101160.34
2022-08-07T11:56:32.423Z,101163.59
2022-08-07T12:01:59.148Z,101159.34
2022-08-07T12:07:10.145Z,101156.19
2022-08-07T12:12:28.250Z,101149.38
2022-08-07T12:17:59.630Z,101153.31
2022-08-07T12:23:21.420Z,101151.03
2022-08-07T12:28:52.947Z,101139.44
2022-08-07T12:34:00.713Z,101137.78
2022-08-07T12:38:59.954Z,101139.47
2022-08-07T12:44:04.067Z,101132.25
2022-08-07T12:49:40.244Z,101136.94
2022-08-07T12:54:59.030Z,101128.69
2022-08-07T13:00:07.250Z,101129.22
2022-08-07T13:06:02.652Z,101131.41
2022-08-07T13:11:23.736Z,101122.84
2022-08-07T13:16:40.305Z,101111.56
2022-08-07T13:21:57.592Z,101116.63
2022-08-07T13:27:10.299Z,101099.16
2022-08-07T13:32:32.435Z,101094.47
2022-08-07T13:38:09.069Z,101091.41
2022-08-07T13:43:11.898Z,101086.22
2022-08-07T13:48:20.668Z,101085.59
2022-08-07T13:53:35.913Z,101077.41
2022-08-07T13:59:05.366Z,101070.16
2022-08-07T14:04:14.161Z,101072.25
2022-08-07T14:10:01.457Z,101064.38
2022-08-07T14:14:47.962Z,101058.50
2022-08-07T14:20:41.711Z,101060.28
2022-08-07T14:25:13.526Z,101048.88
2022-08-07T14:30:12.687Z,101046.31
2022-08-07T14:35:15.802Z,101057.78
2022-08-07T14:40:35.347Z,101036.97
2022-08-07T14:45:54.765Z,101035.84
2022-08-07T14:50:53.943Z,101037.38
2022-08-07T14:55:56.119Z,101033.13
2022-08-07T15:06:29.791Z,101035.13
2022-08-07T15:13:06.525Z,101025.22
2022-08-07T15:16:56.384Z,101020.91
2022-08-07T15:27:21.829Z,101015.28
2022-08-07T15:32:38.869Z,101019.47
2022-08-07T15:38:17.641Z,101020.47
2022-08-07T15:43:05.690Z,101019.31
2022-08-07T15:48:18.586Z,101017.28
2022-08-07T15:53:52.123Z,101004.25
2022-08-07T15:58:55.120Z,101006.25
2022-08-07T16:03:55.704Z,101003.16
2022-08-07T16:08:59.226Z,101001.72
2022-08-07T16:14:17.267Z,101000.50
2022-08-07T16:19:42.309Z,100995.03
2022-08-07T16:25:11.033Z,100990.75
2022-08-07T16:30:30.616Z,100987.56
2022-08-07T16:35:50.724Z,100981.19
2022-08-07T16:41:14.692Z,100978.81
2022-08-07T16:52:50.676Z,100973.75
2022-08-07T16:58:03.511Z,100974.34
2022-08-07T17:04:00.035Z,100970.78
2022-08-07T17:09:09.626Z,100962.63
2022-08-07T17:14:19.446Z,100950.22
2022-08-07T17:20:02.362Z,100959.38
2022-08-07T17:24:54.991Z,100960.41
2022-08-07T17:30:14.530Z,100966.09
2022-08-07T17:35:49.874Z,100967.91
2022-08-07T17:40:50.890Z,100964.97
2022-08-07T17:46:09.436Z,100966.63
2022-08-07T17:51:21.282Z,100957.34
2022-08-07T17:56:52.607Z,100959.72
2022-08-07T18:01:57.558Z,100954.97
2022-08-07T18:07:20.623Z,100950.28
2022-08-07T18:13:06.687Z,100959.41
2022-08-07T18:19:02.716Z,100966.03
2022-08-07T18:24:09.010Z,100978.97
2022-08-07T18:30:06.480Z,100989.47
2022-08-07T18:35:04.165Z,100986.72
2022-08-07T18:40:42.215Z,100997.13
2022-08-07T18:46:27.162Z,101015.44
2022-08-07T18:52:34.211Z,101022.25
2022-08-07T18:57:37.028Z,101042.78
2022-08-07T19:02:42.627Z,101046.34
2022-08-07T19:07:51.945Z,101054.63
2022-08-07T19:13:25.274Z,101039.75
2022-08-07T19:18:45.080Z,101046.97
2022-08-07T19:23:57.882Z,101049.59
2022-08-07T19:31:04.153Z,101039.03
2022-08-07T19:34:34.304Z,101051.75
2022-08-07T19:39:40.572Z,101058.44
2022-08-07T19:44:57.124Z,101062.78
2022-08-07T19:50:03.057Z,101057.16
2022-08-07T19:55:19.377Z,101054.44
2022-08-07T20:00:28.084Z,101064.63
2022-08-07T20:06:00.428Z,101056.25
2022-08-07T20:11:09.536Z,101052.78
2022-08-07T20:16:09.869Z,101061.50
2022-08-07T20:21:42.009Z,101066.72
2022-08-07T20:26:50.124Z,101067.22
2022-08-07T20:31:49.336Z,101064.53
2022-08-07T20:36:50.558Z,101061.06
2022-08-07T20:41:50.710Z,101057.00
2022-08-07T20:46:48.616Z,101062.38
2022-08-07T20:52:14.089Z,101057.97
2022-08-07T20:57:14.979Z,101061.50
2022-08-07T21:02:38.367Z,101059.16
2022-08-07T21:07:36.413Z,101060.31
2022-08-07T21:12:35.508Z,101064.84
2022-08-07T21:18:03.986Z,101073.13
2022-08-07T21:22:54.857Z,101066.66
2022-08-07T21:28:08.642Z,101074.63
2022-08-07T21:33:16.398Z,101068.13
2022-08-07T21:38:49.772Z,101069.41
2022-08-07T21:44:05.363Z,101061.31
2022-08-07T21:49:17.748Z,101066.44
2022-08-07T21:54:48.182Z,101069.31
2022-08-07T22:00:08.934Z,101067.59
2022-08-07T22:05:44.858Z,101063.22
2022-08-07T22:10:38.451Z,101071.88
2022-08-07T22:16:44.187Z,101074.56
2022-08-07T22:21:13.707Z,101066.22
2022-08-07T22:26:28.691Z,101070.72
2022-08-07T22:31:56.150Z,101061.69
2022-08-07T22:37:18.024Z,101073.28
2022-08-07T22:42:26.052Z,101070.16
2022-08-07T22:47:28.808Z,101079.19
2022-08-07T22:52:47.632Z,101081.16
2022-08-07T22:58:08.838Z,101080.28
2022-08-07T23:03:21.678Z,101088.16
2022-08-07T23:08:34.101Z,101079.13
2022-08-07T23:14:10.607Z,101079.81
2022-08-07T23:19:51.422Z,101083.88
2022-08-07T23:25:16.977Z,101078.00
2022-08-07T23:30:37.138Z,101068.16
2022-08-07T23:35:53.490Z,101066.97
2022-08-07T23:41:01.515Z,101068.34
2022-08-07T23:46:39.588Z,101073.50
2022-08-07T23:53:01.647Z,101076.56
2022-08-07T23:57:12.317Z,101077.78
